createdAt,value
2018-08-13T00:00:33.700Z,20.70
2018-08-13T00:01:39.200Z,20.70
2018-08-13T00:02:44.772Z,20.80
2018-08-13T00:03:50.344Z,20.70
2018-08-13T00:04:55.929Z,20.70
2018-08-13T00:06:01.377Z,20.70
2018-08-13T00:07:06.985Z,20.70
2018-08-13T00:08:12.524Z,20.70
2018-08-13T00:09:50.543Z,20.70
2018-08-13T00:10:55.986Z,20.70
2018-08-13T00:12:01.489Z,20.70
2018-08-13T00:13:07.181Z,20.70
2018-08-13T00:14:12.749Z,20.70
2018-08-13T00:15:18.328Z,20.70
2018-08-13T00:16:23.882Z,20.70
2018-08-13T00:17:29.501Z,20.70
2018-08-13T00:18:34.951Z,20.70
2018-08-13T00:19:40.369Z,20.70
2018-08-13T00:20:45.816Z,20.70
2018-08-13T00:21:51.273Z,20.70
2018-08-13T00:22:57.020Z,20.70
2018-08-13T00:24:02.474Z,20.70
2018-08-13T00:25:07.974Z,20.70
2018-08-13T00:26:13.808Z,20.70
2018-08-13T00:27:19.266Z,20.70
2018-08-13T00:28:24.661Z,20.70
2018-08-13T00:29:30.129Z,20.70
2018-08-13T00:30:35.789Z,20.80
2018-08-13T00:31:41.409Z,20.70
2018-08-13T00:32:46.863Z,20.70
2018-08-13T00:33:52.280Z,20.60
2018-08-13T00:34:57.729Z,20.60
2018-08-13T00:36:03.228Z,20.70
2018-08-13T00:37:08.754Z,20.60
2018-08-13T00:38:14.229Z,20.60
2018-08-13T00:39:19.739Z,20.60
2018-08-13T00:40:25.410Z,20.60
2018-08-13T00:41:30.960Z,20.60
2018-08-13T00:42:36.450Z,20.60
2018-08-13T00:43:41.981Z,20.60
2018-08-13T00:44:47.416Z,20.60
2018-08-13T00:45:52.868Z,20.60
2018-08-13T00:46:58.380Z,20.60
2018-08-13T00:48:03.867Z,20.60
2018-08-13T00:49:09.485Z,20.60
2018-08-13T00:50:16.073Z,20.60
2018-08-13T00:51:21.784Z,20.60
2018-08-13T00:52:27.275Z,20.60
2018-08-13T00:53:32.696Z,20.60
2018-08-13T00:54:38.265Z,20.50
2018-08-13T00:55:44.881Z,20.50
2018-08-13T00:56:50.348Z,20.50
2018-08-13T00:57:55.797Z,20.50
2018-08-13T00:59:01.258Z,20.50
2018-08-13T01:00:10.299Z,20.50
2018-08-13T01:01:15.787Z,20.40
2018-08-13T01:02:21.308Z,20.40
2018-08-13T01:03:26.767Z,20.50
2018-08-13T01:04:32.288Z,20.50
2018-08-13T01:05:37.816Z,20.40
2018-08-13T01:06:43.316Z,20.40
2018-08-13T01:07:48.944Z,20.40
2018-08-13T01:08:54.521Z,20.30
2018-08-13T01:10:00.013Z,20.30
2018-08-13T01:11:05.542Z,20.40
2018-08-13T01:12:11.082Z,20.40
2018-08-13T01:13:16.548Z,20.40
2018-08-13T01:14:22.145Z,20.40
2018-08-13T01:15:27.724Z,20.30
2018-08-13T01:16:33.237Z,20.30
2018-08-13T01:17:39.345Z,20.30
2018-08-13T01:18:44.913Z,20.30
2018-08-13T01:19:50.398Z,20.40
2018-08-13T01:20:55.989Z,20.40
2018-08-13T01:22:01.512Z,20.30
2018-08-13T01:23:07.356Z,20.40
2018-08-13T01:24:12.805Z,20.40
2018-08-13T01:25:19.672Z,20.40
2018-08-13T01:26:25.140Z,20.30
2018-08-13T01:27:32.016Z,20.30
2018-08-13T01:28:37.436Z,20.30
2018-08-13T01:29:42.876Z,20.30
2018-08-13T01:30:48.326Z,20.30
2018-08-13T01:31:53.793Z,20.30
2018-08-13T01:32:59.272Z,20.30
2018-08-13T01:34:04.812Z,20.30
2018-08-13T01:35:10.414Z,20.30
2018-08-13T01:36:15.973Z,20.30
2018-08-13T01:37:21.424Z,20.30
2018-08-13T01:38:26.907Z,20.30
2018-08-13T01:39:32.468Z,20.30
2018-08-13T01:40:37.920Z,20.30
2018-08-13T01:41:43.464Z,20.30
2018-08-13T01:42:48.870Z,20.20
2018-08-13T01:43:54.276Z,20.30
2018-08-13T01:44:59.744Z,20.30
2018-08-13T01:46:05.260Z,20.30
2018-08-13T01:47:10.832Z,20.20
2018-08-13T01:48:16.274Z,20.30
2018-08-13T01:49:21.706Z,20.20
2018-08-13T01:50:27.084Z,20.20
2018-08-13T01:51:32.496Z,20.30
2018-08-13T01:52:37.976Z,20.20
2018-08-13T01:53:43.376Z,20.20
2018-08-13T01:54:48.873Z,20.20
2018-08-13T01:55:54.281Z,20.20
2018-08-13T01:56:59.880Z,20.20
2018-08-13T01:58:05.457Z,20.20
2018-08-13T01:59:10.958Z,20.10
2018-08-13T02:00:17.434Z,20.20
2018-08-13T02:01:23.030Z,20.20
2018-08-13T02:02:28.599Z,20.20
2018-08-13T02:03:34.320Z,20.20
2018-08-13T02:04:39.789Z,20.10
2018-08-13T02:05:45.305Z,20.10
2018-08-13T02:06:50.931Z,20.10
2018-08-13T02:07:56.340Z,20.10
2018-08-13T02:09:01.846Z,20.10
2018-08-13T02:10:09.537Z,20.10
2018-08-13T02:11:14.974Z,20.00
2018-08-13T02:12:20.440Z,20.00
2018-08-13T02:13:25.929Z,20.00
2018-08-13T02:14:31.729Z,20.00
2018-08-13T02:15:37.181Z,20.00
2018-08-13T02:16:42.756Z,20.00
2018-08-13T02:17:48.272Z,19.90
2018-08-13T02:18:53.865Z,19.90
2018-08-13T02:19:59.308Z,19.90
2018-08-13T02:21:04.813Z,19.90
2018-08-13T02:22:10.405Z,19.90
2018-08-13T02:23:15.867Z,19.90
2018-08-13T02:24:21.361Z,19.90
2018-08-13T02:25:26.914Z,19.90
2018-08-13T02:26:32.357Z,20.00
2018-08-13T02:27:37.994Z,20.00
2018-08-13T02:28:43.460Z,19.90
2018-08-13T02:29:48.919Z,19.90
2018-08-13T02:30:54.434Z,19.90
2018-08-13T02:31:59.845Z,19.90
2018-08-13T02:33:05.278Z,19.80
2018-08-13T02:34:10.783Z,19.90
2018-08-13T02:35:16.270Z,19.90
2018-08-13T02:36:21.741Z,19.90
2018-08-13T02:37:27.232Z,19.80
2018-08-13T02:38:32.638Z,19.80
2018-08-13T02:39:38.089Z,19.80
2018-08-13T02:40:43.576Z,19.80
2018-08-13T02:41:49.090Z,19.80
2018-08-13T02:42:54.574Z,19.80
2018-08-13T02:44:00.100Z,19.70
2018-08-13T02:45:08.006Z,19.80
2018-08-13T02:46:13.576Z,19.70
2018-08-13T02:47:19.480Z,19.70
2018-08-13T02:48:24.935Z,19.80
2018-08-13T02:49:30.403Z,19.70
2018-08-13T02:50:35.914Z,19.80
2018-08-13T02:51:41.477Z,19.80
2018-08-13T02:52:46.980Z,19.80
2018-08-13T02:53:52.482Z,19.80
2018-08-13T02:54:57.915Z,19.80
2018-08-13T02:56:03.370Z,19.80
2018-08-13T02:57:08.829Z,19.80
2018-08-13T02:58:14.295Z,19.80
2018-08-13T02:59:19.780Z,19.80
2018-08-13T03:00:25.262Z,19.90
2018-08-13T03:01:31.413Z,19.80
2018-08-13T03:02:36.958Z,19.80
2018-08-13T03:03:42.414Z,19.90
2018-08-13T03:04:47.978Z,19.80
2018-08-13T03:05:53.414Z,19.80
2018-08-13T03:06:59.154Z,19.80
2018-08-13T03:08:04.653Z,19.80
2018-08-13T03:09:12.146Z,19.70
2018-08-13T03:10:17.674Z,19.80
2018-08-13T03:11:23.428Z,19.70
2018-08-13T03:12:28.884Z,19.80
2018-08-13T03:13:34.333Z,19.80
2018-08-13T03:14:39.750Z,19.80
2018-08-13T03:15:45.590Z,19.80
2018-08-13T03:16:51.125Z,19.80
2018-08-13T03:17:56.638Z,19.80
2018-08-13T03:19:02.138Z,19.80
2018-08-13T03:20:08.320Z,19.80
2018-08-13T03:21:13.883Z,19.80
2018-08-13T03:22:19.474Z,19.80
2018-08-13T03:23:24.968Z,19.80
2018-08-13T03:24:30.480Z,19.70
2018-08-13T03:25:36.047Z,19.70
2018-08-13T03:26:41.546Z,19.70
2018-08-13T03:27:47.052Z,19.70
2018-08-13T03:28:52.517Z,19.60
2018-08-13T03:29:59.225Z,19.60
2018-08-13T03:31:04.794Z,19.60
2018-08-13T03:32:10.185Z,19.60
2018-08-13T03:33:15.656Z,19.60
2018-08-13T03:34:21.256Z,19.60
2018-08-13T03:35:26.769Z,19.60
2018-08-13T03:36:32.211Z,19.60
2018-08-13T03:37:37.737Z,19.70
2018-08-13T03:38:43.320Z,19.70
2018-08-13T03:39:48.837Z,19.70
2018-08-13T03:40:54.324Z,19.60
2018-08-13T03:41:59.804Z,19.70
2018-08-13T03:43:06.406Z,19.70
2018-08-13T03:44:12.545Z,19.70
2018-08-13T03:45:18.165Z,19.70
2018-08-13T03:46:23.690Z,19.80
2018-08-13T03:47:29.260Z,19.70
2018-08-13T03:48:34.748Z,19.80
2018-08-13T03:49:40.241Z,19.70
2018-08-13T03:50:45.711Z,19.70
2018-08-13T03:51:51.123Z,19.80
2018-08-13T03:52:56.605Z,19.80
2018-08-13T03:54:02.160Z,19.80
2018-08-13T03:55:09.391Z,19.80
2018-08-13T03:56:15.187Z,19.70
2018-08-13T03:57:21.379Z,19.70
2018-08-13T03:58:26.820Z,19.70
2018-08-13T03:59:32.265Z,19.70
2018-08-13T04:00:37.728Z,19.60
2018-08-13T04:01:43.229Z,19.60
2018-08-13T04:02:48.673Z,19.60
2018-08-13T04:03:54.672Z,19.60
2018-08-13T04:05:00.272Z,19.60
2018-08-13T04:06:06.028Z,19.60
2018-08-13T04:07:11.741Z,19.60
2018-08-13T04:08:17.182Z,19.60
2018-08-13T04:09:22.660Z,19.60
2018-08-13T04:10:28.150Z,19.60
2018-08-13T04:11:33.590Z,19.60
2018-08-13T04:12:40.922Z,19.50
2018-08-13T04:13:46.429Z,19.50
2018-08-13T04:14:51.913Z,19.50
2018-08-13T04:15:57.404Z,19.50
2018-08-13T04:17:03.577Z,19.50
2018-08-13T04:18:10.138Z,19.50
2018-08-13T04:19:15.667Z,19.50
2018-08-13T04:20:21.216Z,19.50
2018-08-13T04:21:27.052Z,19.50
2018-08-13T04:22:32.549Z,19.50
2018-08-13T04:23:37.961Z,19.50
2018-08-13T04:24:43.380Z,19.40
2018-08-13T04:25:48.828Z,19.40
2018-08-13T04:26:54.344Z,19.40
2018-08-13T04:27:59.829Z,19.40
2018-08-13T04:29:05.303Z,19.40
2018-08-13T04:30:16.052Z,19.30
2018-08-13T04:31:21.573Z,19.40
2018-08-13T04:32:27.024Z,19.30
2018-08-13T04:33:32.463Z,19.30
2018-08-13T04:34:37.937Z,19.40
2018-08-13T04:35:43.392Z,19.40
2018-08-13T04:36:48.886Z,19.40
2018-08-13T04:37:54.457Z,19.40
2018-08-13T04:39:00.085Z,19.30
2018-08-13T04:40:08.981Z,19.30
2018-08-13T04:41:14.391Z,19.30
2018-08-13T04:42:19.897Z,19.30
2018-08-13T04:43:25.385Z,19.30
2018-08-13T04:44:30.930Z,19.30
2018-08-13T04:45:36.411Z,19.30
2018-08-13T04:46:41.840Z,19.30
2018-08-13T04:47:53.524Z,19.30
2018-08-13T04:48:59.129Z,19.30
2018-08-13T04:50:05.401Z,19.30
2018-08-13T04:51:11.072Z,19.30
2018-08-13T04:52:16.637Z,19.40
2018-08-13T04:53:22.072Z,19.40
2018-08-13T04:54:27.537Z,19.30
2018-08-13T04:55:33.057Z,19.40
2018-08-13T04:56:38.528Z,19.40
2018-08-13T04:57:44.278Z,19.30
2018-08-13T04:58:49.772Z,19.30
2018-08-13T04:59:55.305Z,19.30
2018-08-13T05:01:00.792Z,19.30
2018-08-13T05:02:06.321Z,19.40
2018-08-13T05:03:11.809Z,19.40
2018-08-13T05:04:17.483Z,19.40
2018-08-13T05:05:22.905Z,19.40
2018-08-13T05:06:28.520Z,19.40
2018-08-13T05:07:34.038Z,19.40
2018-08-13T05:08:39.539Z,19.40
2018-08-13T05:09:45.164Z,19.40
2018-08-13T05:10:50.580Z,19.30
2018-08-13T05:11:56.081Z,19.30
2018-08-13T05:13:01.706Z,19.30
2018-08-13T05:14:07.140Z,19.40
2018-08-13T05:15:12.887Z,19.40
2018-08-13T05:16:18.367Z,19.40
2018-08-13T05:17:23.785Z,19.60
2018-08-13T05:18:29.284Z,19.50
2018-08-13T05:19:35.279Z,19.50
2018-08-13T05:20:40.903Z,19.50
2018-08-13T05:21:46.349Z,19.50
2018-08-13T05:22:51.861Z,19.50
2018-08-13T05:23:57.325Z,19.50
2018-08-13T05:25:02.886Z,19.60
2018-08-13T05:26:09.409Z,19.50
2018-08-13T05:27:14.918Z,19.60
2018-08-13T05:28:20.346Z,19.70
2018-08-13T05:29:25.897Z,19.60
2018-08-13T05:30:31.768Z,19.60
2018-08-13T05:31:37.852Z,19.50
2018-08-13T05:32:43.233Z,19.50
2018-08-13T05:33:48.858Z,19.50
2018-08-13T05:34:54.252Z,19.50
2018-08-13T05:36:00.094Z,19.50
2018-08-13T05:37:05.881Z,19.50
2018-08-13T05:38:11.632Z,19.50
2018-08-13T05:39:17.276Z,19.50
2018-08-13T05:40:22.828Z,19.50
2018-08-13T05:41:28.531Z,19.60
2018-08-13T05:42:34.141Z,19.60
2018-08-13T05:43:39.672Z,19.60
2018-08-13T05:44:45.252Z,19.60
2018-08-13T05:45:50.873Z,19.50
2018-08-13T05:46:56.465Z,19.60
2018-08-13T05:48:02.020Z,19.50
2018-08-13T05:49:07.469Z,19.60
2018-08-13T05:50:13.268Z,19.60
2018-08-13T05:51:18.832Z,19.50
2018-08-13T05:52:24.309Z,19.40
2018-08-13T05:53:29.773Z,19.40
2018-08-13T05:54:35.251Z,19.40
2018-08-13T05:55:40.856Z,19.30
2018-08-13T05:56:46.337Z,19.30
2018-08-13T05:57:51.821Z,19.40
2018-08-13T05:58:57.285Z,19.30
2018-08-13T06:00:02.948Z,19.40
2018-08-13T06:01:08.828Z,19.40
2018-08-13T06:02:14.933Z,19.40
2018-08-13T06:03:20.425Z,19.40
2018-08-13T06:04:26.338Z,19.40
2018-08-13T06:05:31.780Z,19.40
2018-08-13T06:06:37.356Z,19.40
2018-08-13T06:07:43.336Z,19.40
2018-08-13T06:08:48.818Z,19.40
2018-08-13T06:09:54.413Z,19.50
2018-08-13T06:10:59.860Z,19.40
2018-08-13T06:12:05.439Z,19.50
2018-08-13T06:13:10.917Z,19.50
2018-08-13T06:14:16.852Z,19.50
2018-08-13T06:15:22.568Z,19.50
2018-08-13T06:16:28.020Z,19.50
2018-08-13T06:17:33.496Z,19.50
2018-08-13T06:18:38.912Z,19.50
2018-08-13T06:19:44.433Z,19.50
2018-08-13T06:20:49.968Z,19.50
2018-08-13T06:21:55.654Z,19.50
2018-08-13T06:23:01.125Z,19.50
2018-08-13T06:24:06.611Z,19.50
2018-08-13T06:25:13.658Z,19.50
2018-08-13T06:26:19.138Z,19.50
2018-08-13T06:27:24.740Z,19.40
2018-08-13T06:28:30.456Z,19.40
2018-08-13T06:29:36.038Z,19.40
2018-08-13T06:30:41.558Z,19.30
2018-08-13T06:31:47.016Z,19.30
2018-08-13T06:32:52.569Z,19.30
2018-08-13T06:33:58.182Z,19.20
2018-08-13T06:35:03.642Z,19.20
2018-08-13T06:36:09.156Z,19.20
2018-08-13T06:37:14.728Z,19.10
2018-08-13T06:38:20.597Z,19.10
2018-08-13T06:39:26.050Z,19.10
2018-08-13T06:40:31.520Z,19.10
2018-08-13T06:41:36.968Z,19.10
2018-08-13T06:42:42.935Z,19.10
2018-08-13T06:43:48.558Z,19.10
2018-08-13T06:44:54.033Z,19.10
2018-08-13T06:45:59.533Z,19.10
2018-08-13T06:47:05.218Z,19.10
2018-08-13T06:48:10.645Z,19.10
2018-08-13T06:49:16.179Z,19.00
2018-08-13T06:50:21.653Z,19.00
2018-08-13T06:51:27.518Z,19.00
2018-08-13T06:52:32.969Z,18.90
2018-08-13T06:53:40.289Z,19.00
2018-08-13T06:54:45.750Z,18.90
2018-08-13T06:55:51.233Z,18.90
2018-08-13T06:56:56.801Z,18.90
2018-08-13T06:58:02.356Z,19.00
2018-08-13T06:59:07.881Z,19.00
2018-08-13T07:00:15.157Z,19.00
2018-08-13T07:01:20.613Z,19.10
2018-08-13T07:02:26.421Z,19.10
2018-08-13T07:03:32.032Z,19.10
2018-08-13T07:04:37.453Z,19.00
2018-08-13T07:05:42.897Z,19.00
2018-08-13T07:06:48.752Z,19.00
2018-08-13T07:07:54.409Z,19.10
2018-08-13T07:08:59.913Z,19.10
2018-08-13T07:10:10.155Z,19.10
2018-08-13T07:11:15.634Z,19.20
2018-08-13T07:12:21.265Z,19.20
2018-08-13T07:13:26.986Z,19.30
2018-08-13T07:14:32.584Z,19.40
2018-08-13T07:15:38.207Z,19.50
2018-08-13T07:16:43.782Z,19.50
2018-08-13T07:17:49.253Z,19.60
2018-08-13T07:18:54.956Z,19.70
2018-08-13T07:20:00.393Z,19.80
2018-08-13T07:21:05.921Z,19.80
2018-08-13T07:22:11.546Z,19.90
2018-08-13T07:23:17.020Z,20.00
2018-08-13T07:24:22.509Z,19.90
2018-08-13T07:25:28.081Z,19.90
2018-08-13T07:26:33.568Z,19.90
2018-08-13T07:27:39.852Z,20.00
2018-08-13T07:28:45.324Z,20.00
2018-08-13T07:29:50.764Z,20.00
2018-08-13T07:30:56.313Z,19.90
2018-08-13T07:32:01.745Z,20.00
2018-08-13T07:33:07.222Z,20.00
2018-08-13T07:34:12.697Z,20.00
2018-08-13T07:35:18.494Z,20.00
2018-08-13T07:36:23.908Z,19.90
2018-08-13T07:37:29.341Z,19.80
2018-08-13T07:38:34.782Z,19.80
2018-08-13T07:39:40.279Z,19.90
2018-08-13T07:40:45.844Z,19.90
2018-08-13T07:41:51.298Z,20.00
2018-08-13T07:42:56.752Z,20.10
2018-08-13T07:44:02.160Z,20.00
2018-08-13T07:45:08.432Z,20.00
2018-08-13T07:46:13.969Z,20.10
2018-08-13T07:47:19.786Z,20.20
2018-08-13T07:48:25.415Z,20.20
2018-08-13T07:49:30.833Z,20.20
2018-08-13T07:50:36.457Z,20.00
2018-08-13T07:51:41.964Z,20.00
2018-08-13T07:52:47.367Z,20.10
2018-08-13T07:53:52.792Z,20.10
2018-08-13T07:54:58.294Z,20.20
2018-08-13T07:56:03.910Z,20.30
2018-08-13T07:57:09.647Z,20.40
2018-08-13T07:58:15.116Z,20.30
2018-08-13T07:59:20.638Z,20.30
2018-08-13T08:00:26.077Z,20.30
2018-08-13T08:01:31.498Z,20.40
2018-08-13T08:02:37.020Z,20.40
2018-08-13T08:03:42.470Z,20.50
2018-08-13T08:04:47.945Z,20.40
2018-08-13T08:05:53.433Z,20.40
2018-08-13T08:06:59.560Z,20.40
2018-08-13T08:08:05.133Z,20.40
2018-08-13T08:09:12.824Z,20.40
2018-08-13T08:10:18.403Z,20.40
2018-08-13T08:11:23.997Z,20.50
2018-08-13T08:12:30.009Z,20.50
2018-08-13T08:13:35.517Z,20.50
2018-08-13T08:14:41.010Z,20.50
2018-08-13T08:15:46.453Z,20.50
2018-08-13T08:16:51.937Z,20.40
2018-08-13T08:17:57.437Z,20.30
2018-08-13T08:19:02.923Z,20.20
2018-08-13T08:20:08.361Z,20.10
2018-08-13T08:21:13.890Z,20.10
2018-08-13T08:22:19.745Z,20.20
2018-08-13T08:23:25.266Z,20.20
2018-08-13T08:24:30.868Z,20.30
2018-08-13T08:25:36.365Z,20.30
2018-08-13T08:26:41.904Z,20.30
2018-08-13T08:27:47.373Z,20.40
2018-08-13T08:28:52.803Z,20.50
2018-08-13T08:29:58.577Z,20.50
2018-08-13T08:31:04.034Z,20.70
2018-08-13T08:32:09.542Z,20.90
2018-08-13T08:33:15.041Z,20.90
2018-08-13T08:34:20.561Z,20.90
2018-08-13T08:35:26.082Z,20.90
2018-08-13T08:36:31.544Z,20.80
2018-08-13T08:37:37.525Z,20.90
2018-08-13T08:38:43.081Z,20.90
2018-08-13T08:39:48.496Z,20.90
2018-08-13T08:40:54.163Z,21.00
2018-08-13T08:41:59.625Z,20.90
2018-08-13T08:43:05.609Z,21.00
2018-08-13T08:44:11.692Z,21.10
2018-08-13T08:45:27.787Z,21.10
2018-08-13T08:46:33.305Z,21.00
2018-08-13T08:47:38.972Z,21.00
2018-08-13T08:48:44.434Z,20.90
2018-08-13T08:49:49.912Z,20.90
2018-08-13T08:50:55.373Z,21.00
2018-08-13T08:52:00.818Z,21.00
2018-08-13T08:53:07.047Z,21.00
2018-08-13T08:54:12.624Z,21.00
2018-08-13T08:55:18.983Z,21.00
2018-08-13T08:56:24.458Z,21.00
2018-08-13T08:57:29.909Z,21.10
2018-08-13T08:58:35.446Z,21.10
2018-08-13T08:59:41.320Z,21.10
2018-08-13T09:00:46.982Z,21.10
2018-08-13T09:01:52.444Z,21.30
2018-08-13T09:02:57.958Z,21.30
2018-08-13T09:04:03.449Z,21.20
2018-08-13T09:05:09.522Z,21.10
2018-08-13T09:06:14.993Z,21.20
2018-08-13T09:07:20.666Z,21.10
2018-08-13T09:08:26.110Z,21.10
2018-08-13T09:09:31.545Z,21.10
2018-08-13T09:10:37.116Z,21.20
2018-08-13T09:11:43.285Z,21.10
2018-08-13T09:12:48.789Z,21.20
2018-08-13T09:13:54.265Z,21.20
2018-08-13T09:14:59.765Z,21.20
2018-08-13T09:16:05.277Z,21.20
2018-08-13T09:17:11.196Z,21.20
2018-08-13T09:18:33.373Z,21.30
2018-08-13T09:19:55.644Z,21.40
2018-08-13T09:21:18.341Z,21.40
2018-08-13T09:22:40.782Z,21.30
2018-08-13T09:24:03.248Z,21.30
2018-08-13T09:25:25.604Z,21.40
2018-08-13T09:26:47.926Z,21.30
2018-08-13T09:28:10.444Z,21.30
2018-08-13T09:29:33.313Z,21.40
2018-08-13T09:32:24.178Z,21.50
2018-08-13T09:33:46.536Z,21.50
2018-08-13T09:35:29.860Z,21.50
2018-08-13T09:36:35.587Z,21.60
2018-08-13T09:37:41.241Z,21.50
2018-08-13T09:38:46.721Z,21.40
2018-08-13T09:39:52.187Z,21.40
2018-08-13T09:40:57.700Z,21.50
2018-08-13T09:42:03.129Z,21.60
2018-08-13T09:43:08.610Z,21.60
2018-08-13T09:44:14.109Z,21.70
2018-08-13T09:45:19.625Z,21.70
2018-08-13T09:46:25.119Z,21.70
2018-08-13T09:47:30.552Z,21.70
2018-08-13T09:48:36.307Z,21.70
2018-08-13T09:49:41.862Z,21.80
2018-08-13T09:50:47.376Z,21.90
2018-08-13T09:51:52.902Z,21.90
2018-08-13T09:52:58.475Z,22.10
2018-08-13T09:54:04.088Z,22.10
2018-08-13T09:55:09.639Z,22.20
2018-08-13T09:56:15.245Z,22.10
2018-08-13T09:57:20.849Z,21.90
2018-08-13T09:58:26.389Z,21.90
2018-08-13T09:59:31.878Z,22.00
2018-08-13T10:00:42.872Z,22.10
2018-08-13T10:01:48.333Z,22.30
2018-08-13T10:02:53.937Z,22.30
2018-08-13T10:03:59.434Z,22.50
2018-08-13T10:05:04.977Z,22.80
2018-08-13T10:06:10.620Z,22.80
2018-08-13T10:07:16.206Z,23.00
2018-08-13T10:08:22.074Z,23.00
2018-08-13T10:09:27.676Z,23.10
2018-08-13T10:10:33.059Z,23.00
2018-08-13T10:11:38.539Z,23.10
2018-08-13T10:12:44.739Z,23.30
2018-08-13T10:13:50.180Z,23.40
2018-08-13T10:14:55.646Z,23.50
2018-08-13T10:16:01.145Z,23.70
2018-08-13T10:17:06.859Z,23.80
2018-08-13T10:18:12.466Z,24.00
2018-08-13T10:19:18.141Z,24.20
2018-08-13T10:20:23.598Z,24.40
2018-08-13T10:21:29.104Z,24.40
2018-08-13T10:22:34.774Z,24.30
2018-08-13T10:23:40.192Z,24.40
2018-08-13T10:24:45.716Z,24.40
2018-08-13T10:25:51.290Z,24.50
2018-08-13T10:26:56.968Z,24.50
2018-08-13T10:28:02.509Z,24.30
2018-08-13T10:29:08.229Z,24.30
2018-08-13T10:30:16.089Z,24.30
2018-08-13T10:31:21.832Z,24.10
2018-08-13T10:32:27.740Z,24.10
2018-08-13T10:33:33.245Z,24.10
2018-08-13T10:34:38.857Z,24.00
2018-08-13T10:35:44.590Z,24.00
2018-08-13T10:36:50.057Z,24.00
2018-08-13T10:37:55.583Z,24.10
2018-08-13T10:39:01.185Z,24.00
2018-08-13T10:40:15.273Z,24.00
2018-08-13T10:41:20.800Z,24.00
2018-08-13T10:42:26.330Z,23.80
2018-08-13T10:43:31.830Z,23.70
2018-08-13T10:44:37.307Z,23.60
2018-08-13T10:45:42.824Z,23.50
2018-08-13T10:46:48.637Z,23.60
2018-08-13T10:47:54.130Z,23.60
2018-08-13T10:48:59.696Z,23.60
2018-08-13T10:50:06.494Z,23.60
2018-08-13T10:51:11.998Z,23.90
2018-08-13T10:52:17.448Z,23.90
2018-08-13T10:53:23.057Z,23.90
2018-08-13T10:54:28.565Z,24.00
2018-08-13T10:55:34.032Z,24.00
2018-08-13T10:56:39.579Z,23.90
2018-08-13T10:57:45.093Z,23.80
2018-08-13T10:58:50.636Z,23.90
2018-08-13T10:59:56.205Z,24.00
2018-08-13T11:01:01.780Z,24.20
2018-08-13T11:02:07.266Z,24.30
2018-08-13T11:03:12.786Z,24.40
2018-08-13T11:04:18.638Z,24.40
2018-08-13T11:05:24.352Z,24.60
2018-08-13T11:06:29.903Z,24.60
2018-08-13T11:07:35.446Z,24.70
2018-08-13T11:08:40.940Z,24.40
2018-08-13T11:09:47.001Z,24.30
2018-08-13T11:10:52.509Z,24.20
2018-08-13T11:11:58.025Z,24.10
2018-08-13T11:13:03.706Z,24.10
2018-08-13T11:14:09.271Z,24.00
2018-08-13T11:15:19.439Z,23.80
2018-08-13T11:16:25.205Z,23.90
2018-08-13T11:17:30.684Z,24.00
2018-08-13T11:18:36.089Z,24.30
2018-08-13T11:19:41.605Z,24.40
2018-08-13T11:20:47.505Z,24.60
2018-08-13T11:21:53.052Z,24.60
2018-08-13T11:22:58.469Z,24.60
2018-08-13T11:24:04.045Z,24.30
2018-08-13T11:25:11.429Z,24.50
2018-08-13T11:26:16.995Z,24.50
2018-08-13T11:27:24.577Z,24.60
2018-08-13T11:28:31.022Z,24.60
2018-08-13T11:29:36.884Z,24.70
2018-08-13T11:30:42.797Z,24.60
2018-08-13T11:31:48.671Z,24.60
2018-08-13T11:32:55.396Z,24.70
2018-08-13T11:34:01.136Z,24.70
2018-08-13T11:35:07.942Z,24.50
2018-08-13T11:36:13.441Z,24.50
2018-08-13T11:37:18.931Z,24.60
2018-08-13T11:38:24.444Z,24.70
2018-08-13T11:39:29.977Z,24.80
2018-08-13T11:40:35.459Z,24.70
2018-08-13T11:41:41.044Z,24.70
2018-08-13T11:42:46.600Z,24.90
2018-08-13T11:43:52.000Z,24.90
2018-08-13T11:44:57.565Z,24.90
2018-08-13T11:46:03.050Z,25.10
2018-08-13T11:47:08.640Z,25.40
2018-08-13T11:48:14.099Z,25.50
2018-08-13T11:49:19.549Z,25.50
2018-08-13T11:50:25.273Z,25.50
2018-08-13T11:51:30.706Z,25.40
2018-08-13T11:52:36.283Z,25.40
2018-08-13T11:53:41.694Z,25.30
2018-08-13T11:54:47.170Z,25.30
2018-08-13T11:55:52.572Z,25.30
2018-08-13T11:56:58.039Z,25.20
2018-08-13T11:58:03.550Z,25.00
2018-08-13T11:59:09.068Z,24.80
2018-08-13T12:00:15.088Z,24.90
2018-08-13T12:01:20.620Z,24.80
2018-08-13T12:02:26.196Z,25.00
2018-08-13T12:03:32.062Z,25.20
2018-08-13T12:04:37.486Z,25.30
2018-08-13T12:05:42.972Z,25.60
2018-08-13T12:06:48.442Z,25.80
2018-08-13T12:07:53.989Z,25.80
2018-08-13T12:08:59.451Z,25.80
2018-08-13T12:10:05.756Z,26.00
2018-08-13T12:11:11.249Z,25.90
2018-08-13T12:12:16.636Z,25.80
2018-08-13T12:13:22.193Z,25.70
2018-08-13T12:14:27.661Z,25.70
2018-08-13T12:15:33.141Z,25.80
2018-08-13T12:16:38.674Z,26.10
2018-08-13T12:17:44.645Z,25.90
2018-08-13T12:18:50.133Z,25.80
2018-08-13T12:19:55.561Z,25.90
2018-08-13T12:21:01.009Z,26.00
2018-08-13T12:22:06.813Z,25.90
2018-08-13T12:23:12.279Z,25.50
2018-08-13T12:24:17.728Z,25.30
2018-08-13T12:25:25.601Z,25.30
2018-08-13T12:26:31.090Z,25.30
2018-08-13T12:27:36.658Z,25.30
2018-08-13T12:28:42.184Z,25.20
2018-08-13T12:29:47.673Z,25.00
2018-08-13T12:30:53.181Z,24.90
2018-08-13T12:31:58.640Z,24.80
2018-08-13T12:33:04.098Z,24.90
2018-08-13T12:34:09.595Z,24.90
2018-08-13T12:35:15.296Z,24.90
2018-08-13T12:36:20.865Z,24.90
2018-08-13T12:37:26.327Z,24.80
2018-08-13T12:38:31.890Z,24.80
2018-08-13T12:39:38.133Z,24.70
2018-08-13T12:40:43.646Z,24.90
2018-08-13T12:41:49.028Z,24.80
2018-08-13T12:42:54.505Z,25.00
2018-08-13T12:44:00.012Z,25.20
2018-08-13T12:45:08.188Z,25.20
2018-08-13T12:46:13.649Z,25.20
2018-08-13T12:47:19.072Z,25.10
2018-08-13T12:48:24.628Z,25.00
2018-08-13T12:49:30.449Z,24.90
2018-08-13T12:50:35.958Z,25.00
2018-08-13T12:51:41.442Z,25.10
2018-08-13T12:52:48.012Z,25.20
2018-08-13T12:53:53.472Z,25.50
2018-08-13T12:54:58.866Z,25.80
2018-08-13T12:56:04.818Z,26.00
2018-08-13T12:57:10.246Z,26.10
2018-08-13T12:58:15.677Z,26.00
2018-08-13T12:59:21.181Z,26.10
2018-08-13T13:00:26.673Z,25.90
2018-08-13T13:01:32.293Z,25.70
2018-08-13T13:02:38.000Z,25.60
2018-08-13T13:03:43.913Z,25.70
2018-08-13T13:04:49.313Z,25.50
2018-08-13T13:05:54.742Z,25.40
2018-08-13T13:07:00.156Z,25.30
2018-08-13T13:08:05.702Z,25.30
2018-08-13T13:09:12.989Z,25.00
2018-08-13T13:10:19.153Z,24.80
2018-08-13T13:11:24.612Z,24.80
2018-08-13T13:12:30.066Z,24.70
2018-08-13T13:13:35.537Z,24.50
2018-08-13T13:14:41.367Z,24.40
2018-08-13T13:15:46.935Z,24.30
2018-08-13T13:16:52.463Z,24.40
2018-08-13T13:17:57.958Z,24.40
2018-08-13T13:19:03.421Z,24.40
2018-08-13T13:20:18.592Z,24.30
2018-08-13T13:21:24.103Z,24.40
2018-08-13T13:22:29.785Z,24.40
2018-08-13T13:23:35.208Z,24.30
2018-08-13T13:24:40.657Z,24.20
2018-08-13T13:25:46.157Z,24.20
2018-08-13T13:26:51.630Z,24.10
2018-08-13T13:27:57.099Z,23.90
2018-08-13T13:29:02.656Z,23.70
2018-08-13T13:30:11.714Z,23.70
2018-08-13T13:31:17.228Z,23.50
2018-08-13T13:32:22.717Z,23.40
2018-08-13T13:33:28.169Z,23.30
2018-08-13T13:34:33.660Z,23.10
2018-08-13T13:35:39.148Z,22.80
2018-08-13T13:36:44.653Z,22.60
2018-08-13T13:37:50.196Z,22.30
2018-08-13T13:38:55.800Z,22.10
2018-08-13T13:40:01.271Z,21.80
2018-08-13T13:41:06.832Z,21.60
2018-08-13T13:42:12.320Z,21.50
2018-08-13T13:43:17.956Z,21.40
2018-08-13T13:44:23.484Z,21.20
2018-08-13T13:45:29.561Z,21.20
2018-08-13T13:46:35.379Z,21.10
2018-08-13T13:47:40.916Z,21.00
2018-08-13T13:48:46.397Z,21.00
2018-08-13T13:49:51.964Z,21.00
2018-08-13T13:50:57.448Z,21.00
2018-08-13T13:52:02.977Z,21.00
2018-08-13T13:53:08.617Z,21.10
2018-08-13T13:54:14.022Z,21.10
2018-08-13T13:55:19.590Z,21.10
2018-08-13T13:56:25.147Z,21.10
2018-08-13T13:57:30.975Z,21.10
2018-08-13T13:58:36.518Z,21.10
2018-08-13T13:59:42.211Z,21.10
2018-08-13T14:00:47.681Z,21.10
2018-08-13T14:01:53.166Z,21.20
2018-08-13T14:02:58.610Z,21.20
2018-08-13T14:04:04.157Z,21.30
2018-08-13T14:05:10.045Z,21.20
2018-08-13T14:06:15.550Z,21.10
2018-08-13T14:07:20.968Z,21.10
2018-08-13T14:08:26.401Z,21.10
2018-08-13T14:09:31.905Z,21.10
2018-08-13T14:10:37.386Z,21.10
2018-08-13T14:11:43.105Z,21.00